sensor_id;sensor_type;location;lat;lon;timestamp;pressure;altitude;pressure_sealevel;temperature;humidity
48606;BME280;8482;54.396;18.590;2023-03-03T17:23:48;101177.25;;;5.22;61.36
48606;BME280;8482;54.396;18.590;2023-03-03T17:32:24;101182.06;;;5.14;61.45
48606;BME280;8482;54.396;18.590;2023-03-03T17:35:22;101185.66;;;5.11;62.04
48606;BME280;8482;54.396;18.590;2023-03-03T17:41:00;101173.53;;;5.09;62.79
48606;BME280;8482;54.396;18.590;2023-03-03T17:46:27;101190.44;;;5.03;63.66
48606;BME280;8482;54.396;18.590;2023-03-03T18:01:07;101177.03;;;4.90;65.55
48606;BME280;8482;54.396;18.590;2023-03-03T18:08:10;101166.13;;;4.80;66.23
48606;BME280;8482;54.396;18.590;2023-03-03T18:16:25;101154.41;;;4.68;67.18
48606;BME280;8482;54.396;18.590;2023-03-03T18:21:58;101150.16;;;4.66;67.41
48606;BME280;8482;54.396;18.590;2023-03-03T18:24:58;101140.66;;;4.63;68.00
48606;BME280;8482;54.396;18.590;2023-03-03T18:30:58;101143.50;;;4.58;68.00
48606;BME280;8482;54.396;18.590;2023-03-03T18:34:36;101132.28;;;4.55;67.55
48606;BME280;8482;54.396;18.590;2023-03-03T18:48:12;101123.47;;;4.56;68.91
48606;BME280;8482;54.396;18.590;2023-03-03T18:50:39;101127.94;;;4.54;68.00
48606;BME280;8482;54.396;18.590;2023-03-03T18:53:30;101124.75;;;4.47;68.37
48606;BME280;8482;54.396;18.590;2023-03-03T18:56:02;101113.47;;;4.45;68.50
48606;BME280;8482;54.396;18.590;2023-03-03T18:58:41;101119.63;;;4.44;68.02
48606;BME280;8482;54.396;18.590;2023-03-03T19:09:11;101081.47;;;4.37;68.64
48606;BME280;8482;54.396;18.590;2023-03-03T19:11:53;101099.03;;;4.36;68.47
48606;BME280;8482;54.396;18.590;2023-03-03T19:16:58;101096.53;;;4.33;68.68
48606;BME280;8482;54.396;18.590;2023-03-03T19:20:13;101083.53;;;4.30;68.76
48606;BME280;8482;54.396;18.590;2023-03-03T19:23:04;101086.31;;;4.27;68.89
48606;BME280;8482;54.396;18.590;2023-03-03T19:25:31;101074.31;;;4.21;68.66
48606;BME280;8482;54.396;18.590;2023-03-03T19:28:35;101074.53;;;4.17;69.06
48606;BME280;8482;54.396;18.590;2023-03-03T19:31:25;101087.78;;;4.13;69.12
48606;BME280;8482;54.396;18.590;2023-03-03T19:34:21;101070.44;;;4.11;68.72
48606;BME280;8482;54.396;18.590;2023-03-03T19:37:15;101086.44;;;4.05;68.55
48606;BME280;8482;54.396;18.590;2023-03-03T19:45:51;101075.53;;;3.95;68.91
48606;BME280;8482;54.396;18.590;2023-03-03T19:48:50;101065.09;;;3.93;69.09
48606;BME280;8482;54.396;18.590;2023-03-03T19:51:50;101074.81;;;3.91;68.91
48606;BME280;8482;54.396;18.590;2023-03-03T19:58:20;101067.00;;;3.90;69.58
48606;BME280;8482;54.396;18.590;2023-03-03T20:25:18;101063.66;;;3.67;69.45
48606;BME280;8482;54.396;18.590;2023-03-03T20:42:52;101041.81;;;3.66;69.20
48606;BME280;8482;54.396;18.590;2023-03-03T20:56:40;101047.72;;;3.72;69.62
48606;BME280;8482;54.396;18.590;2023-03-03T20:59:54;101063.31;;;3.75;70.01
48606;BME280;8482;54.396;18.590;2023-03-03T21:05:20;101022.19;;;3.75;68.90
48606;BME280;8482;54.396;18.590;2023-03-03T21:08:01;100998.66;;;3.74;68.50
48606;BME280;8482;54.396;18.590;2023-03-03T21:10:33;100974.94;;;3.75;68.30
48606;BME280;8482;54.396;18.590;2023-03-03T21:13:34;100953.19;;;3.73;67.99
48606;BME280;8482;54.396;18.590;2023-03-03T21:16:31;100961.22;;;3.70;68.78
48606;BME280;8482;54.396;18.590;2023-03-03T21:21:32;100930.78;;;3.66;68.67
48606;BME280;8482;54.396;18.590;2023-03-03T21:23:58;100935.94;;;3.67;68.58
48606;BME280;8482;54.396;18.590;2023-03-03T21:26:54;100953.47;;;3.67;68.59
48606;BME280;8482;54.396;18.590;2023-03-03T21:31:57;100933.47;;;3.64;68.20
48606;BME280;8482;54.396;18.590;2023-03-03T21:36:57;100924.75;;;3.64;68.84
48606;BME280;8482;54.396;18.590;2023-03-03T21:42:15;100906.41;;;3.64;68.39
48606;BME280;8482;54.396;18.590;2023-03-03T21:44:45;100898.53;;;3.64;69.06
48606;BME280;8482;54.396;18.590;2023-03-03T21:47:27;100888.03;;;3.64;68.31
48606;BME280;8482;54.396;18.590;2023-03-03T21:49:53;100894.06;;;3.66;68.16
48606;BME280;8482;54.396;18.590;2023-03-03T21:52:21;100879.47;;;3.60;68.86
48606;BME280;8482;54.396;18.590;2023-03-03T21:54:49;100890.56;;;3.65;68.07
48606;BME280;8482;54.396;18.590;2023-03-03T21:57:16;100870.50;;;3.64;68.04
48606;BME280;8482;54.396;18.590;2023-03-03T21:59:42;100895.91;;;3.64;68.34
48606;BME280;8482;54.396;18.590;2023-03-03T22:02:09;100885.28;;;3.67;69.04
48606;BME280;8482;54.396;18.590;2023-03-03T22:04:35;100872.22;;;3.65;68.64
48606;BME280;8482;54.396;18.590;2023-03-03T22:07:03;100883.34;;;3.71;69.37
48606;BME280;8482;54.396;18.590;2023-03-03T22:09:29;100872.75;;;3.72;69.21
48606;BME280;8482;54.396;18.590;2023-03-03T22:11:55;100865.66;;;3.74;69.02
48606;BME280;8482;54.396;18.590;2023-03-03T22:14:21;100875.88;;;3.80;69.36
48606;BME280;8482;54.396;18.590;2023-03-03T22:16:47;100864.28;;;3.84;69.44
48606;BME280;8482;54.396;18.590;2023-03-03T22:19:13;100858.91;;;3.88;69.36
48606;BME280;8482;54.396;18.590;2023-03-03T22:21:39;100872.81;;;3.90;69.87
48606;BME280;8482;54.396;18.590;2023-03-03T22:24:05;100859.59;;;3.91;69.85
48606;BME280;8482;54.396;18.590;2023-03-03T22:26:32;100863.00;;;3.93;69.70
48606;BME280;8482;54.396;18.590;2023-03-03T22:28:58;100866.41;;;3.95;69.26
48606;BME280;8482;54.396;18.590;2023-03-03T22:31:25;100859.31;;;3.97;69.87
48606;BME280;8482;54.396;18.590;2023-03-03T22:33:51;100848.81;;;3.97;69.87
48606;BME280;8482;54.396;18.590;2023-03-03T22:36:17;100839.84;;;4.02;69.89
48606;BME280;8482;54.396;18.590;2023-03-03T22:38:46;100838.16;;;4.01;70.43
48606;BME280;8482;54.396;18.590;2023-03-03T22:41:13;100838.84;;;4.04;70.29
48606;BME280;8482;54.396;18.590;2023-03-03T22:43:39;100824.72;;;4.07;70.29
48606;BME280;8482;54.396;18.590;2023-03-03T22:46:06;100830.06;;;4.05;70.88
48606;BME280;8482;54.396;18.590;2023-03-03T22:48:32;100835.06;;;4.10;70.89
48606;BME280;8482;54.396;18.590;2023-03-03T22:50:58;100828.88;;;4.11;70.42
48606;BME280;8482;54.396;18.590;2023-03-03T22:53:25;100829.72;;;4.11;70.70
48606;BME280;8482;54.396;18.590;2023-03-03T22:55:51;100840.94;;;4.15;70.65
48606;BME280;8482;54.396;18.590;2023-03-03T22:58:18;100840.03;;;4.16;71.15
48606;BME280;8482;54.396;18.590;2023-03-03T23:00:46;100822.47;;;4.17;71.04
48606;BME280;8482;54.396;18.590;2023-03-03T23:03:13;100822.38;;;4.18;70.97
48606;BME280;8482;54.396;18.590;2023-03-03T23:05:40;100810.19;;;4.17;71.01
48606;BME280;8482;54.396;18.590;2023-03-03T23:08:10;100796.13;;;4.18;71.67
48606;BME280;8482;54.396;18.590;2023-03-03T23:10:37;100810.81;;;4.22;71.53
48606;BME280;8482;54.396;18.590;2023-03-03T23:13:03;100804.63;;;4.23;71.58
48606;BME280;8482;54.396;18.590;2023-03-03T23:15:30;100780.84;;;4.26;71.75
48606;BME280;8482;54.396;18.590;2023-03-03T23:17:55;100779.81;;;4.29;71.71
48606;BME280;8482;54.396;18.590;2023-03-03T23:20:28;100770.94;;;4.32;71.86
48606;BME280;8482;54.396;18.590;2023-03-03T23:22:55;100765.63;;;4.33;71.73
48606;BME280;8482;54.396;18.590;2023-03-03T23:25:21;100769.06;;;4.34;72.40
48606;BME280;8482;54.396;18.590;2023-03-03T23:27:49;100769.00;;;4.35;72.19
48606;BME280;8482;54.396;18.590;2023-03-03T23:30:17;100758.50;;;4.35;72.36
48606;BME280;8482;54.396;18.590;2023-03-03T23:32:43;100764.75;;;4.33;72.40
48606;BME280;8482;54.396;18.590;2023-03-03T23:35:09;100774.19;;;4.37;72.66
48606;BME280;8482;54.396;18.590;2023-03-03T23:37:35;100758.41;;;4.37;72.63
48606;BME280;8482;54.396;18.590;2023-03-03T23:40:02;100754.78;;;4.39;72.51
48606;BME280;8482;54.396;18.590;2023-03-03T23:42:28;100760.78;;;4.41;72.84
48606;BME280;8482;54.396;18.590;2023-03-03T23:44:55;100755.53;;;4.41;72.98
48606;BME280;8482;54.396;18.590;2023-03-03T23:47:22;100759.88;;;4.42;72.78
48606;BME280;8482;54.396;18.590;2023-03-03T23:49:48;100757.09;;;4.45;73.29
48606;BME280;8482;54.396;18.590;2023-03-03T23:52:14;100764.81;;;4.49;73.02
48606;BME280;8482;54.396;18.590;2023-03-03T23:54:41;100767.34;;;4.50;72.99
48606;BME280;8482;54.396;18.590;2023-03-03T23:57:07;100761.06;;;4.53;73.01
48606;BME280;8482;54.396;18.590;2023-03-03T23:59:34;100750.50;;;4.54;73.04
